sensor_id;sensor_type;location;lat;lon;timestamp;P1;durP1;ratioP1;P2;durP2;ratioP2
44189;SDS011;29856;52.144;5.430;2023-12-29T00:02:23;13.95;;;2.70;;
44189;SDS011;29856;52.144;5.430;2023-12-29T00:04:49;16.90;;;3.63;;
44189;SDS011;29856;52.144;5.430;2023-12-29T00:07:15;12.52;;;2.28;;
44189;SDS011;29856;52.144;5.430;2023-12-29T00:09:40;14.52;;;3.65;;
44189;SDS011;29856;52.144;5.430;2023-12-29T00:12:06;13.60;;;3.28;;
44189;SDS011;29856;52.144;5.430;2023-12-29T00:14:33;11.68;;;2.72;;
44189;SDS011;29856;52.144;5.430;2023-12-29T00:17:02;21.83;;;4.03;;
44189;SDS011;29856;52.144;5.430;2023-12-29T00:19:28;15.00;;;2.80;;
44189;SDS011;29856;52.144;5.430;2023-12-29T00:21:53;14.90;;;3.25;;
44189;SDS011;29856;52.144;5.430;2023-12-29T00:24:19;12.20;;;2.33;;
44189;SDS011;29856;52.144;5.430;2023-12-29T00:26:44;11.80;;;2.92;;
44189;SDS011;29856;52.144;5.430;2023-12-29T00:29:10;21.90;;;3.78;;
44189;SDS011;29856;52.144;5.430;2023-12-29T00:31:35;14.13;;;2.50;;
44189;SDS011;29856;52.144;5.430;2023-12-29T00:34:00;16.77;;;2.92;;
44189;SDS011;29856;52.144;5.430;2023-12-29T00:36:26;16.35;;;2.45;;
44189;SDS011;29856;52.144;5.430;2023-12-29T00:38:51;14.73;;;2.47;;
44189;SDS011;29856;52.144;5.430;2023-12-29T00:41:17;21.25;;;3.20;;
44189;SDS011;29856;52.144;5.430;2023-12-29T00:43:42;9.70;;;2.22;;
44189;SDS011;29856;52.144;5.430;2023-12-29T00:46:08;13.68;;;2.28;;
44189;SDS011;29856;52.144;5.430;2023-12-29T00:48:34;17.48;;;2.55;;
44189;SDS011;29856;52.144;5.430;2023-12-29T00:51:03;11.85;;;2.25;;
44189;SDS011;29856;52.144;5.430;2023-12-29T00:53:29;16.42;;;3.17;;
44189;SDS011;29856;52.144;5.430;2023-12-29T00:55:55;17.40;;;3.08;;
44189;SDS011;29856;52.144;5.430;2023-12-29T00:58:20;16.73;;;3.08;;
44189;SDS011;29856;52.144;5.430;2023-12-29T01:00:46;15.57;;;2.72;;
44189;SDS011;29856;52.144;5.430;2023-12-29T01:03:11;14.57;;;2.70;;
44189;SDS011;29856;52.144;5.430;2023-12-29T01:05:36;12.05;;;2.80;;
44189;SDS011;29856;52.144;5.430;2023-12-29T01:08:02;15.35;;;2.50;;
44189;SDS011;29856;52.144;5.430;2023-12-29T01:10:28;13.50;;;2.72;;
44189;SDS011;29856;52.144;5.430;2023-12-29T01:12:53;15.60;;;2.75;;
44189;SDS011;29856;52.144;5.430;2023-12-29T01:15:18;12.00;;;2.00;;
44189;SDS011;29856;52.144;5.430;2023-12-29T01:17:44;13.13;;;3.25;;
44189;SDS011;29856;52.144;5.430;2023-12-29T01:20:09;17.02;;;2.60;;
44189;SDS011;29856;52.144;5.430;2023-12-29T01:22:35;13.55;;;2.17;;
44189;SDS011;29856;52.144;5.430;2023-12-29T01:25:00;10.95;;;2.00;;
44189;SDS011;29856;52.144;5.430;2023-12-29T01:27:26;13.82;;;2.20;;
44189;SDS011;29856;52.144;5.430;2023-12-29T01:29:52;11.88;;;2.03;;
44189;SDS011;29856;52.144;5.430;2023-12-29T01:32:18;11.63;;;2.53;;
44189;SDS011;29856;52.144;5.430;2023-12-29T01:34:43;12.57;;;2.00;;
44189;SDS011;29856;52.144;5.430;2023-12-29T01:37:09;14.70;;;2.83;;
44189;SDS011;29856;52.144;5.430;2023-12-29T01:39:34;14.23;;;3.00;;
44189;SDS011;29856;52.144;5.430;2023-12-29T01:42:00;18.05;;;2.97;;
44189;SDS011;29856;52.144;5.430;2023-12-29T01:44:26;12.48;;;2.72;;
44189;SDS011;29856;52.144;5.430;2023-12-29T01:46:53;15.57;;;2.33;;
44189;SDS011;29856;52.144;5.430;2023-12-29T01:49:21;18.70;;;3.10;;
44189;SDS011;29856;52.144;5.430;2023-12-29T01:51:51;13.38;;;2.33;;
44189;SDS011;29856;52.144;5.430;2023-12-29T01:54:20;15.02;;;3.22;;
44189;SDS011;29856;52.144;5.430;2023-12-29T01:56:48;16.10;;;2.50;;
44189;SDS011;29856;52.144;5.430;2023-12-29T01:59:15;15.98;;;3.03;;
44189;SDS011;29856;52.144;5.430;2023-12-29T02:01:41;19.67;;;2.83;;
44189;SDS011;29856;52.144;5.430;2023-12-29T02:04:08;17.67;;;4.35;;
44189;SDS011;29856;52.144;5.430;2023-12-29T02:06:35;8.65;;;2.08;;
44189;SDS011;29856;52.144;5.430;2023-12-29T02:09:02;15.45;;;2.50;;
44189;SDS011;29856;52.144;5.430;2023-12-29T02:11:28;14.00;;;2.50;;
44189;SDS011;29856;52.144;5.430;2023-12-29T02:13:53;16.65;;;2.85;;
44189;SDS011;29856;52.144;5.430;2023-12-29T02:16:22;10.82;;;2.00;;
44189;SDS011;29856;52.144;5.430;2023-12-29T02:19:34;13.73;;;2.47;;
44189;SDS011;29856;52.144;5.430;2023-12-29T02:22:03;13.55;;;2.85;;
44189;SDS011;29856;52.144;5.430;2023-12-29T02:24:28;15.35;;;2.50;;
44189;SDS011;29856;52.144;5.430;2023-12-29T02:26:57;10.85;;;2.03;;
44189;SDS011;29856;52.144;5.430;2023-12-29T02:29:31;15.25;;;1.80;;
44189;SDS011;29856;52.144;5.430;2023-12-29T02:31:59;10.10;;;2.42;;
44189;SDS011;29856;52.144;5.430;2023-12-29T02:34:25;21.00;;;2.47;;
44189;SDS011;29856;52.144;5.430;2023-12-29T02:36:54;12.88;;;2.38;;
44189;SDS011;29856;52.144;5.430;2023-12-29T02:39:21;17.13;;;2.60;;
44189;SDS011;29856;52.144;5.430;2023-12-29T02:41:47;13.77;;;2.50;;
44189;SDS011;29856;52.144;5.430;2023-12-29T02:44:12;16.13;;;2.70;;
44189;SDS011;29856;52.144;5.430;2023-12-29T02:46:38;16.48;;;3.25;;
44189;SDS011;29856;52.144;5.430;2023-12-29T02:49:03;15.57;;;3.40;;
44189;SDS011;29856;52.144;5.430;2023-12-29T02:51:29;14.40;;;2.72;;
44189;SDS011;29856;52.144;5.430;2023-12-29T02:53:54;8.75;;;2.30;;
44189;SDS011;29856;52.144;5.430;2023-12-29T02:56:20;21.95;;;4.13;;
44189;SDS011;29856;52.144;5.430;2023-12-29T02:58:45;9.38;;;2.50;;
44189;SDS011;29856;52.144;5.430;2023-12-29T03:01:11;12.07;;;3.15;;
44189;SDS011;29856;52.144;5.430;2023-12-29T03:03:36;16.00;;;2.88;;
44189;SDS011;29856;52.144;5.430;2023-12-29T03:06:02;15.73;;;3.00;;
44189;SDS011;29856;52.144;5.430;2023-12-29T03:08:27;16.33;;;3.05;;
44189;SDS011;29856;52.144;5.430;2023-12-29T03:10:53;19.13;;;2.83;;
44189;SDS011;29856;52.144;5.430;2023-12-29T03:13:18;17.48;;;2.60;;
44189;SDS011;29856;52.144;5.430;2023-12-29T03:15:44;17.38;;;2.67;;
44189;SDS011;29856;52.144;5.430;2023-12-29T03:18:09;13.43;;;2.70;;
44189;SDS011;29856;52.144;5.430;2023-12-29T03:20:35;21.38;;;3.63;;
44189;SDS011;29856;52.144;5.430;2023-12-29T03:23:03;25.00;;;4.07;;
44189;SDS011;29856;52.144;5.430;2023-12-29T03:25:28;14.88;;;3.53;;
44189;SDS011;29856;52.144;5.430;2023-12-29T03:27:54;17.85;;;3.88;;
44189;SDS011;29856;52.144;5.430;2023-12-29T03:30:19;22.70;;;3.97;;
44189;SDS011;29856;52.144;5.430;2023-12-29T03:32:45;15.55;;;3.65;;
44189;SDS011;29856;52.144;5.430;2023-12-29T03:35:10;21.40;;;3.55;;
44189;SDS011;29856;52.144;5.430;2023-12-29T03:37:37;24.95;;;4.50;;
44189;SDS011;29856;52.144;5.430;2023-12-29T03:40:03;27.00;;;5.45;;
44189;SDS011;29856;52.144;5.430;2023-12-29T03:42:28;20.08;;;4.80;;
44189;SDS011;29856;52.144;5.430;2023-12-29T03:44:54;19.77;;;4.47;;
44189;SDS011;29856;52.144;5.430;2023-12-29T03:47:19;22.90;;;4.00;;
44189;SDS011;29856;52.144;5.430;2023-12-29T03:49:45;23.27;;;3.85;;
44189;SDS011;29856;52.144;5.430;2023-12-29T03:52:10;21.88;;;3.70;;
44189;SDS011;29856;52.144;5.430;2023-12-29T03:54:36;21.23;;;3.90;;
44189;SDS011;29856;52.144;5.430;2023-12-29T03:57:02;22.60;;;4.88;;
44189;SDS011;29856;52.144;5.430;2023-12-29T03:59:28;21.75;;;3.42;;
44189;SDS011;29856;52.144;5.430;2023-12-29T04:01:53;27.77;;;7.28;;
44189;SDS011;29856;52.144;5.430;2023-12-29T04:04:19;21.20;;;3.67;;
44189;SDS011;29856;52.144;5.430;2023-12-29T04:06:44;24.73;;;3.40;;
44189;SDS011;29856;52.144;5.430;2023-12-29T04:09:10;28.38;;;5.38;;
44189;SDS011;29856;52.144;5.430;2023-12-29T04:11:35;23.50;;;5.43;;
44189;SDS011;29856;52.144;5.430;2023-12-29T04:14:01;20.88;;;3.60;;
44189;SDS011;29856;52.144;5.430;2023-12-29T04:16:26;24.08;;;4.07;;
44189;SDS011;29856;52.144;5.430;2023-12-29T04:18:52;22.77;;;3.75;;
44189;SDS011;29856;52.144;5.430;2023-12-29T04:21:17;24.55;;;3.47;;
44189;SDS011;29856;52.144;5.430;2023-12-29T04:23:43;18.23;;;3.42;;
44189;SDS011;29856;52.144;5.430;2023-12-29T04:26:08;21.58;;;3.25;;
44189;SDS011;29856;52.144;5.430;2023-12-29T04:28:33;23.23;;;3.83;;
44189;SDS011;29856;52.144;5.430;2023-12-29T04:30:59;16.42;;;3.92;;
44189;SDS011;29856;52.144;5.430;2023-12-29T04:33:24;21.85;;;4.22;;
44189;SDS011;29856;52.144;5.430;2023-12-29T04:35:50;20.00;;;4.18;;
44189;SDS011;29856;52.144;5.430;2023-12-29T04:38:16;22.80;;;3.70;;
44189;SDS011;29856;52.144;5.430;2023-12-29T04:40:41;26.70;;;4.40;;
44189;SDS011;29856;52.144;5.430;2023-12-29T04:43:07;24.42;;;3.65;;
44189;SDS011;29856;52.144;5.430;2023-12-29T04:45:32;26.95;;;4.90;;
44189;SDS011;29856;52.144;5.430;2023-12-29T04:47:58;25.10;;;4.95;;
44189;SDS011;29856;52.144;5.430;2023-12-29T04:50:23;32.58;;;4.75;;
44189;SDS011;29856;52.144;5.430;2023-12-29T04:52:49;27.10;;;4.30;;
44189;SDS011;29856;52.144;5.430;2023-12-29T04:55:14;26.73;;;4.68;;
44189;SDS011;29856;52.144;5.430;2023-12-29T04:57:40;24.83;;;4.07;;
44189;SDS011;29856;52.144;5.430;2023-12-29T05:00:05;22.00;;;3.72;;
44189;SDS011;29856;52.144;5.430;2023-12-29T05:02:31;24.88;;;4.90;;
44189;SDS011;29856;52.144;5.430;2023-12-29T05:04:57;21.75;;;3.65;;
44189;SDS011;29856;52.144;5.430;2023-12-29T05:07:23;26.50;;;4.00;;
44189;SDS011;29856;52.144;5.430;2023-12-29T05:09:49;27.10;;;3.88;;
44189;SDS011;29856;52.144;5.430;2023-12-29T05:12:14;26.45;;;4.28;;
44189;SDS011;29856;52.144;5.430;2023-12-29T05:14:40;25.33;;;6.05;;
44189;SDS011;29856;52.144;5.430;2023-12-29T05:17:05;26.38;;;4.20;;
44189;SDS011;29856;52.144;5.430;2023-12-29T05:19:31;29.38;;;4.78;;
44189;SDS011;29856;52.144;5.430;2023-12-29T05:21:56;30.05;;;3.83;;
44189;SDS011;29856;52.144;5.430;2023-12-29T05:24:21;28.08;;;5.22;;
44189;SDS011;29856;52.144;5.430;2023-12-29T05:26:47;28.95;;;4.60;;
44189;SDS011;29856;52.144;5.430;2023-12-29T05:29:13;33.28;;;5.15;;
44189;SDS011;29856;52.144;5.430;2023-12-29T05:31:39;28.20;;;4.68;;
44189;SDS011;29856;52.144;5.430;2023-12-29T05:34:04;25.83;;;3.65;;
44189;SDS011;29856;52.144;5.430;2023-12-29T05:36:29;24.50;;;3.05;;
44189;SDS011;29856;52.144;5.430;2023-12-29T05:38:55;35.15;;;4.32;;
44189;SDS011;29856;52.144;5.430;2023-12-29T05:41:21;26.70;;;4.90;;
44189;SDS011;29856;52.144;5.430;2023-12-29T05:43:46;26.85;;;3.70;;
44189;SDS011;29856;52.144;5.430;2023-12-29T05:46:12;21.45;;;4.72;;
44189;SDS011;29856;52.144;5.430;2023-12-29T05:48:38;20.77;;;3.47;;
44189;SDS011;29856;52.144;5.430;2023-12-29T05:51:10;25.20;;;3.60;;
44189;SDS011;29856;52.144;5.430;2023-12-29T05:53:39;23.17;;;3.50;;
44189;SDS011;29856;52.144;5.430;2023-12-29T05:56:05;30.45;;;4.88;;
44189;SDS011;29856;52.144;5.430;2023-12-29T05:58:30;22.77;;;3.47;;
44189;SDS011;29856;52.144;5.430;2023-12-29T06:00:56;25.80;;;3.53;;
44189;SDS011;29856;52.144;5.430;2023-12-29T06:03:21;24.30;;;4.75;;
44189;SDS011;29856;52.144;5.430;2023-12-29T06:05:47;22.92;;;3.65;;
44189;SDS011;29856;52.144;5.430;2023-12-29T06:08:13;24.35;;;3.75;;
44189;SDS011;29856;52.144;5.430;2023-12-29T06:10:38;31.50;;;4.88;;
44189;SDS011;29856;52.144;5.430;2023-12-29T06:13:04;21.08;;;3.60;;
44189;SDS011;29856;52.144;5.430;2023-12-29T06:15:29;24.90;;;3.60;;
44189;SDS011;29856;52.144;5.430;2023-12-29T06:17:55;18.15;;;4.03;;
44189;SDS011;29856;52.144;5.430;2023-12-29T06:20:21;27.90;;;4.57;;
44189;SDS011;29856;52.144;5.430;2023-12-29T06:22:46;22.65;;;3.50;;
44189;SDS011;29856;52.144;5.430;2023-12-29T06:25:12;22.38;;;3.45;;
44189;SDS011;29856;52.144;5.430;2023-12-29T06:27:38;20.25;;;3.15;;
44189;SDS011;29856;52.144;5.430;2023-12-29T06:30:05;21.15;;;3.58;;
44189;SDS011;29856;52.144;5.430;2023-12-29T06:32:31;23.52;;;3.90;;
44189;SDS011;29856;52.144;5.430;2023-12-29T06:34:57;23.55;;;3.50;;
44189;SDS011;29856;52.144;5.430;2023-12-29T06:37:22;20.52;;;3.40;;
44189;SDS011;29856;52.144;5.430;2023-12-29T06:39:48;18.23;;;3.25;;
44189;SDS011;29856;52.144;5.430;2023-12-29T06:42:14;21.15;;;3.47;;
44189;SDS011;29856;52.144;5.430;2023-12-29T06:44:39;26.52;;;4.30;;
44189;SDS011;29856;52.144;5.430;2023-12-29T06:47:05;23.23;;;2.97;;
44189;SDS011;29856;52.144;5.430;2023-12-29T06:49:30;23.25;;;3.58;;
44189;SDS011;29856;52.144;5.430;2023-12-29T06:51:56;16.05;;;3.25;;
44189;SDS011;29856;52.144;5.430;2023-12-29T06:54:21;16.52;;;2.88;;
44189;SDS011;29856;52.144;5.430;2023-12-29T06:56:47;21.58;;;3.67;;
44189;SDS011;29856;52.144;5.430;2023-12-29T06:59:12;18.15;;;3.30;;
44189;SDS011;29856;52.144;5.430;2023-12-29T07:01:38;23.80;;;3.50;;
44189;SDS011;29856;52.144;5.430;2023-12-29T07:04:04;17.52;;;3.17;;
44189;SDS011;29856;52.144;5.430;2023-12-29T07:06:29;15.90;;;3.13;;
44189;SDS011;29856;52.144;5.430;2023-12-29T07:08:55;12.73;;;2.08;;
44189;SDS011;29856;52.144;5.430;2023-12-29T07:11:20;17.15;;;2.80;;
44189;SDS011;29856;52.144;5.430;2023-12-29T07:13:46;11.48;;;2.22;;
44189;SDS011;29856;52.144;5.430;2023-12-29T07:16:11;15.32;;;3.03;;
44189;SDS011;29856;52.144;5.430;2023-12-29T07:18:37;10.35;;;2.42;;
44189;SDS011;29856;52.144;5.430;2023-12-29T07:21:03;13.00;;;1.92;;
44189;SDS011;29856;52.144;5.430;2023-12-29T07:23:28;15.30;;;2.70;;
44189;SDS011;29856;52.144;5.430;2023-12-29T07:25:54;9.18;;;2.00;;
44189;SDS011;29856;52.144;5.430;2023-12-29T07:28:19;10.45;;;2.13;;
44189;SDS011;29856;52.144;5.430;2023-12-29T07:30:45;12.15;;;2.25;;
44189;SDS011;29856;52.144;5.430;2023-12-29T07:33:10;9.63;;;2.00;;
44189;SDS011;29856;52.144;5.430;2023-12-29T07:35:36;11.05;;;1.85;;
44189;SDS011;29856;52.144;5.430;2023-12-29T07:38:01;8.40;;;1.85;;
44189;SDS011;29856;52.144;5.430;2023-12-29T07:40:27;7.38;;;1.85;;
44189;SDS011;29856;52.144;5.430;2023-12-29T07:42:52;10.07;;;2.15;;
44189;SDS011;29856;52.144;5.430;2023-12-29T07:45:18;11.07;;;2.55;;
44189;SDS011;29856;52.144;5.430;2023-12-29T07:47:43;11.10;;;2.10;;
44189;SDS011;29856;52.144;5.430;2023-12-29T07:50:09;12.02;;;2.55;;
44189;SDS011;29856;52.144;5.430;2023-12-29T07:52:35;10.05;;;2.28;;
44189;SDS011;29856;52.144;5.430;2023-12-29T07:55:00;13.38;;;2.10;;
44189;SDS011;29856;52.144;5.430;2023-12-29T07:57:25;11.23;;;2.78;;
44189;SDS011;29856;52.144;5.430;2023-12-29T07:59:51;12.38;;;2.58;;
44189;SDS011;29856;52.144;5.430;2023-12-29T08:02:16;11.52;;;2.00;;
44189;SDS011;29856;52.144;5.430;2023-12-29T08:04:42;14.00;;;2.60;;
44189;SDS011;29856;52.144;5.430;2023-12-29T08:07:07;12.75;;;2.25;;
44189;SDS011;29856;52.144;5.430;2023-12-29T08:09:33;10.07;;;2.67;;
44189;SDS011;29856;52.144;5.430;2023-12-29T08:11:58;12.52;;;2.05;;
44189;SDS011;29856;52.144;5.430;2023-12-29T08:14:24;15.57;;;2.92;;
44189;SDS011;29856;52.144;5.430;2023-12-29T08:16:49;14.05;;;2.65;;
44189;SDS011;29856;52.144;5.430;2023-12-29T08:19:15;11.65;;;2.22;;
44189;SDS011;29856;52.144;5.430;2023-12-29T08:21:40;10.40;;;2.15;;
44189;SDS011;29856;52.144;5.430;2023-12-29T08:24:06;13.80;;;2.50;;
44189;SDS011;29856;52.144;5.430;2023-12-29T08:26:31;15.77;;;2.35;;
44189;SDS011;29856;52.144;5.430;2023-12-29T08:28:57;13.02;;;2.58;;
44189;SDS011;29856;52.144;5.430;2023-12-29T08:31:22;9.23;;;1.83;;
44189;SDS011;29856;52.144;5.430;2023-12-29T08:33:48;6.13;;;1.88;;
44189;SDS011;29856;52.144;5.430;2023-12-29T08:36:14;8.95;;;2.20;;
44189;SDS011;29856;52.144;5.430;2023-12-29T08:38:42;9.27;;;2.22;;
44189;SDS011;29856;52.144;5.430;2023-12-29T08:41:08;9.57;;;1.90;;
44189;SDS011;29856;52.144;5.430;2023-12-29T08:43:33;9.70;;;2.33;;
44189;SDS011;29856;52.144;5.430;2023-12-29T08:45:59;8.63;;;2.67;;
44189;SDS011;29856;52.144;5.430;2023-12-29T08:48:24;8.02;;;2.03;;
44189;SDS011;29856;52.144;5.430;2023-12-29T08:50:50;9.38;;;1.88;;
44189;SDS011;29856;52.144;5.430;2023-12-29T08:53:15;10.68;;;2.28;;
44189;SDS011;29856;52.144;5.430;2023-12-29T08:55:41;9.38;;;1.83;;
44189;SDS011;29856;52.144;5.430;2023-12-29T08:58:07;11.95;;;1.90;;
44189;SDS011;29856;52.144;5.430;2023-12-29T09:00:32;10.93;;;2.03;;
44189;SDS011;29856;52.144;5.430;2023-12-29T09:02:58;9.98;;;2.17;;
44189;SDS011;29856;52.144;5.430;2023-12-29T09:05:24;7.63;;;2.05;;
44189;SDS011;29856;52.144;5.430;2023-12-29T09:07:49;11.13;;;2.30;;
44189;SDS011;29856;52.144;5.430;2023-12-29T09:10:15;7.32;;;1.90;;
44189;SDS011;29856;52.144;5.430;2023-12-29T09:12:40;8.23;;;2.08;;
44189;SDS011;29856;52.144;5.430;2023-12-29T09:15:07;10.45;;;2.25;;
44189;SDS011;29856;52.144;5.430;2023-12-29T09:17:33;8.27;;;1.83;;
44189;SDS011;29856;52.144;5.430;2023-12-29T09:19:59;9.32;;;2.72;;
44189;SDS011;29856;52.144;5.430;2023-12-29T09:22:24;11.60;;;2.30;;
44189;SDS011;29856;52.144;5.430;2023-12-29T09:24:50;10.05;;;2.30;;
44189;SDS011;29856;52.144;5.430;2023-12-29T09:27:15;8.75;;;2.08;;
44189;SDS011;29856;52.144;5.430;2023-12-29T09:29:41;7.75;;;2.10;;
44189;SDS011;29856;52.144;5.430;2023-12-29T09:32:06;9.18;;;2.47;;
44189;SDS011;29856;52.144;5.430;2023-12-29T09:34:32;9.98;;;2.28;;
44189;SDS011;29856;52.144;5.430;2023-12-29T09:36:58;12.30;;;2.10;;
44189;SDS011;29856;52.144;5.430;2023-12-29T09:39:23;14.07;;;2.13;;
44189;SDS011;29856;52.144;5.430;2023-12-29T09:41:51;11.65;;;2.25;;
44189;SDS011;29856;52.144;5.430;2023-12-29T09:44:17;11.10;;;2.60;;
44189;SDS011;29856;52.144;5.430;2023-12-29T09:46:46;9.48;;;1.95;;
44189;SDS011;29856;52.144;5.430;2023-12-29T09:49:18;9.85;;;2.03;;
44189;SDS011;29856;52.144;5.430;2023-12-29T09:51:44;12.23;;;2.13;;
44189;SDS011;29856;52.144;5.430;2023-12-29T09:54:10;10.80;;;1.98;;
44189;SDS011;29856;52.144;5.430;2023-12-29T09:56:37;9.95;;;2.17;;
44189;SDS011;29856;52.144;5.430;2023-12-29T09:59:03;9.98;;;1.80;;
44189;SDS011;29856;52.144;5.430;2023-12-29T10:01:29;9.00;;;1.52;;
44189;SDS011;29856;52.144;5.430;2023-12-29T10:03:55;10.93;;;2.53;;
44189;SDS011;29856;52.144;5.430;2023-12-29T10:06:23;10.25;;;1.80;;
44189;SDS011;29856;52.144;5.430;2023-12-29T10:08:50;8.95;;;2.00;;
44189;SDS011;29856;52.144;5.430;2023-12-29T10:11:17;7.20;;;1.23;;
44189;SDS011;29856;52.144;5.430;2023-12-29T10:13:45;9.30;;;2.13;;
44189;SDS011;29856;52.144;5.430;2023-12-29T10:16:28;13.25;;;3.10;;
44189;SDS011;29856;52.144;5.430;2023-12-29T10:19:05;9.60;;;1.90;;
44189;SDS011;29856;52.144;5.430;2023-12-29T10:22:03;9.60;;;1.83;;
44189;SDS011;29856;52.144;5.430;2023-12-29T10:24:45;9.73;;;1.92;;
44189;SDS011;29856;52.144;5.430;2023-12-29T10:27:10;10.15;;;2.30;;
44189;SDS011;29856;52.144;5.430;2023-12-29T10:29:36;7.50;;;2.22;;
44189;SDS011;29856;52.144;5.430;2023-12-29T10:32:02;6.78;;;2.10;;
44189;SDS011;29856;52.144;5.430;2023-12-29T10:34:27;6.80;;;1.90;;
44189;SDS011;29856;52.144;5.430;2023-12-29T10:36:53;5.53;;;1.85;;
44189;SDS011;29856;52.144;5.430;2023-12-29T10:39:18;7.65;;;2.50;;
44189;SDS011;29856;52.144;5.430;2023-12-29T10:41:44;9.93;;;2.10;;
44189;SDS011;29856;52.144;5.430;2023-12-29T10:44:09;7.40;;;1.77;;
44189;SDS011;29856;52.144;5.430;2023-12-29T10:46:35;4.78;;;1.42;;
44189;SDS011;29856;52.144;5.430;2023-12-29T10:49:07;10.02;;;1.85;;
44189;SDS011;29856;52.144;5.430;2023-12-29T10:51:33;6.05;;;1.60;;
44189;SDS011;29856;52.144;5.430;2023-12-29T10:53:58;12.98;;;2.25;;
44189;SDS011;29856;52.144;5.430;2023-12-29T10:56:24;9.35;;;1.75;;
44189;SDS011;29856;52.144;5.430;2023-12-29T11:01:28;8.93;;;1.90;;
44189;SDS011;29856;52.144;5.430;2023-12-29T11:04:01;10.13;;;1.92;;
44189;SDS011;29856;52.144;5.430;2023-12-29T11:06:43;8.55;;;1.33;;
44189;SDS011;29856;52.144;5.430;2023-12-29T11:09:10;9.40;;;1.65;;
44189;SDS011;29856;52.144;5.430;2023-12-29T11:11:36;13.80;;;1.73;;
44189;SDS011;29856;52.144;5.430;2023-12-29T11:14:02;10.05;;;2.03;;
44189;SDS011;29856;52.144;5.430;2023-12-29T11:16:27;11.10;;;1.63;;
44189;SDS011;29856;52.144;5.430;2023-12-29T11:18:55;9.88;;;1.58;;
44189;SDS011;29856;52.144;5.430;2023-12-29T11:21:21;14.30;;;2.13;;
44189;SDS011;29856;52.144;5.430;2023-12-29T11:23:47;9.57;;;1.92;;
44189;SDS011;29856;52.144;5.430;2023-12-29T11:26:12;13.57;;;2.20;;
44189;SDS011;29856;52.144;5.430;2023-12-29T11:28:39;10.00;;;1.70;;
44189;SDS011;29856;52.144;5.430;2023-12-29T11:31:05;7.10;;;1.75;;
44189;SDS011;29856;52.144;5.430;2023-12-29T11:33:31;15.65;;;2.33;;
44189;SDS011;29856;52.144;5.430;2023-12-29T11:36:13;15.35;;;1.90;;
44189;SDS011;29856;52.144;5.430;2023-12-29T11:41:33;12.18;;;1.98;;
44189;SDS011;29856;52.144;5.430;2023-12-29T11:44:12;13.80;;;2.42;;
44189;SDS011;29856;52.144;5.430;2023-12-29T11:46:42;13.55;;;2.10;;
44189;SDS011;29856;52.144;5.430;2023-12-29T11:49:09;9.45;;;1.27;;
44189;SDS011;29856;52.144;5.430;2023-12-29T11:54:04;14.55;;;1.90;;
44189;SDS011;29856;52.144;5.430;2023-12-29T11:59:11;13.82;;;2.78;;
44189;SDS011;29856;52.144;5.430;2023-12-29T12:01:56;16.90;;;2.72;;
44189;SDS011;29856;52.144;5.430;2023-12-29T12:07:05;9.27;;;2.55;;
44189;SDS011;29856;52.144;5.430;2023-12-29T12:09:51;19.40;;;2.70;;
44189;SDS011;29856;52.144;5.430;2023-12-29T12:13:01;21.20;;;3.55;;
44189;SDS011;29856;52.144;5.430;2023-12-29T12:15:09;15.65;;;2.38;;
44189;SDS011;29856;52.144;5.430;2023-12-29T12:17:54;15.10;;;3.13;;
44189;SDS011;29856;52.144;5.430;2023-12-29T12:20:35;18.50;;;2.28;;
44189;SDS011;29856;52.144;5.430;2023-12-29T12:23:11;17.67;;;3.05;;
44189;SDS011;29856;52.144;5.430;2023-12-29T12:25:41;13.52;;;2.20;;
44189;SDS011;29856;52.144;5.430;2023-12-29T12:28:09;13.70;;;2.30;;
44189;SDS011;29856;52.144;5.430;2023-12-29T12:30:35;12.65;;;2.30;;
44189;SDS011;29856;52.144;5.430;2023-12-29T12:33:01;15.13;;;2.28;;
44189;SDS011;29856;52.144;5.430;2023-12-29T12:35:28;15.93;;;2.72;;
44189;SDS011;29856;52.144;5.430;2023-12-29T12:38:13;17.58;;;3.53;;
44189;SDS011;29856;52.144;5.430;2023-12-29T12:40:39;19.20;;;2.42;;
44189;SDS011;29856;52.144;5.430;2023-12-29T12:43:05;13.40;;;2.33;;
44189;SDS011;29856;52.144;5.430;2023-12-29T12:45:35;16.13;;;2.42;;
44189;SDS011;29856;52.144;5.430;2023-12-29T12:48:13;17.95;;;2.80;;
44189;SDS011;29856;52.144;5.430;2023-12-29T12:50:54;13.98;;;3.03;;
44189;SDS011;29856;52.144;5.430;2023-12-29T12:53:20;13.48;;;2.88;;
44189;SDS011;29856;52.144;5.430;2023-12-29T12:55:48;18.35;;;3.00;;
44189;SDS011;29856;52.144;5.430;2023-12-29T12:58:15;22.80;;;3.10;;
44189;SDS011;29856;52.144;5.430;2023-12-29T13:00:42;16.33;;;2.65;;
44189;SDS011;29856;52.144;5.430;2023-12-29T13:03:07;15.18;;;2.78;;
44189;SDS011;29856;52.144;5.430;2023-12-29T13:05:35;18.67;;;2.50;;
44189;SDS011;29856;52.144;5.430;2023-12-29T13:08:01;11.40;;;2.50;;
44189;SDS011;29856;52.144;5.430;2023-12-29T13:10:26;15.00;;;2.83;;
44189;SDS011;29856;52.144;5.430;2023-12-29T13:12:52;18.30;;;3.10;;
44189;SDS011;29856;52.144;5.430;2023-12-29T13:15:18;22.88;;;2.80;;
44189;SDS011;29856;52.144;5.430;2023-12-29T13:17:49;26.27;;;3.65;;
44189;SDS011;29856;52.144;5.430;2023-12-29T13:20:18;14.87;;;3.10;;
44189;SDS011;29856;52.144;5.430;2023-12-29T13:22:48;21.70;;;2.95;;
44189;SDS011;29856;52.144;5.430;2023-12-29T13:25:17;23.83;;;3.03;;
44189;SDS011;29856;52.144;5.430;2023-12-29T13:27:49;19.75;;;3.05;;
44189;SDS011;29856;52.144;5.430;2023-12-29T13:30:15;13.43;;;3.17;;
44189;SDS011;29856;52.144;5.430;2023-12-29T13:32:42;18.85;;;4.55;;
44189;SDS011;29856;52.144;5.430;2023-12-29T13:38:03;27.67;;;3.97;;
44189;SDS011;29856;52.144;5.430;2023-12-29T13:40:41;20.67;;;3.53;;
44189;SDS011;29856;52.144;5.430;2023-12-29T13:43:17;18.70;;;3.15;;
44189;SDS011;29856;52.144;5.430;2023-12-29T13:45:43;18.55;;;2.95;;
44189;SDS011;29856;52.144;5.430;2023-12-29T13:48:09;21.63;;;2.92;;
44189;SDS011;29856;52.144;5.430;2023-12-29T13:50:35;24.17;;;3.08;;
44189;SDS011;29856;52.144;5.430;2023-12-29T13:53:01;24.05;;;3.85;;
44189;SDS011;29856;52.144;5.430;2023-12-29T13:55:27;23.30;;;3.28;;
44189;SDS011;29856;52.144;5.430;2023-12-29T13:57:52;25.45;;;3.38;;
44189;SDS011;29856;52.144;5.430;2023-12-29T14:00:19;19.80;;;3.53;;
44189;SDS011;29856;52.144;5.430;2023-12-29T14:02:48;19.38;;;3.47;;
44189;SDS011;29856;52.144;5.430;2023-12-29T14:08:17;22.48;;;3.28;;
44189;SDS011;29856;52.144;5.430;2023-12-29T14:10:43;19.20;;;3.72;;
44189;SDS011;29856;52.144;5.430;2023-12-29T14:13:18;24.60;;;2.88;;
44189;SDS011;29856;52.144;5.430;2023-12-29T14:15:44;21.03;;;2.67;;
44189;SDS011;29856;52.144;5.430;2023-12-29T14:21:00;18.15;;;3.33;;
44189;SDS011;29856;52.144;5.430;2023-12-29T14:23:25;13.90;;;3.47;;
44189;SDS011;29856;52.144;5.430;2023-12-29T14:25:51;18.77;;;3.03;;
44189;SDS011;29856;52.144;5.430;2023-12-29T14:28:18;20.80;;;3.03;;
44189;SDS011;29856;52.144;5.430;2023-12-29T14:30:45;19.45;;;3.53;;
44189;SDS011;29856;52.144;5.430;2023-12-29T14:33:10;26.65;;;4.35;;
44189;SDS011;29856;52.144;5.430;2023-12-29T14:35:36;23.73;;;4.30;;
44189;SDS011;29856;52.144;5.430;2023-12-29T14:38:02;15.70;;;2.88;;
44189;SDS011;29856;52.144;5.430;2023-12-29T14:40:28;23.02;;;3.35;;
44189;SDS011;29856;52.144;5.430;2023-12-29T14:42:54;20.45;;;2.90;;
44189;SDS011;29856;52.144;5.430;2023-12-29T14:45:19;17.27;;;3.28;;
44189;SDS011;29856;52.144;5.430;2023-12-29T14:47:45;14.70;;;2.40;;
44189;SDS011;29856;52.144;5.430;2023-12-29T14:50:11;25.95;;;4.78;;
44189;SDS011;29856;52.144;5.430;2023-12-29T14:52:37;17.65;;;3.35;;
44189;SDS011;29856;52.144;5.430;2023-12-29T14:55:03;18.48;;;3.20;;
44189;SDS011;29856;52.144;5.430;2023-12-29T14:57:29;21.45;;;3.95;;